Time;durP1;ratioP1;P1;durP2;ratioP2;P2;SDS_P1;SDS_P2;PMS_P1;PMS_P2;Temp;Humidity;BMP_temperature;BMP_pressure;BME280_temperature;BME280_humidity;BME280_pressure;Samples;Min_cycle;Max_cycle;Signal;HPM_P1;HPM_P2
2020/12/04 00:02:25;;;;;;;24.50;15.13;;;;;;;-0.49;73.42;94445.34;5113145;28;20051;-74
2020/12/04 00:04:52;;;;;;;26.58;15.15;;;;;;;-0.50;73.42;94436.88;5113226;28;20054;-73
2020/12/04 00:07:18;;;;;;;28.52;15.90;;;;;;;-0.50;73.30;94431.75;5112919;28;20047;-74
2020/12/04 00:09:45;;;;;;;27.05;15.50;;;;;;;-0.49;73.33;94427.41;5112900;28;20058;-74
2020/12/04 00:12:11;;;;;;;22.55;14.98;;;;;;;-0.49;73.46;94428.19;5113150;28;20048;-74
2020/12/04 00:14:39;;;;;;;25.55;14.95;;;;;;;-0.49;73.78;94412.84;5112791;28;20089;-74
2020/12/04 00:17:06;;;;;;;29.10;15.68;;;;;;;-0.47;73.66;94423.72;5122130;28;20040;-71
2020/12/04 00:19:33;;;;;;;24.08;14.45;;;;;;;-0.47;73.53;94426.28;5130835;28;20051;-72
2020/12/04 00:21:59;;;;;;;27.90;16.50;;;;;;;-0.47;73.81;94438.28;5131592;28;20057;-72
2020/12/04 00:24:28;;;;;;;25.42;15.38;;;;;;;-0.47;73.96;94433.97;5133541;28;20055;-73
2020/12/04 00:26:55;;;;;;;26.65;15.82;;;;;;;-0.49;73.61;94433.31;5131946;28;20042;-73
2020/12/04 00:29:23;;;;;;;26.38;14.98;;;;;;;-0.50;73.86;94448.88;5131432;28;20045;-71
2020/12/04 00:31:50;;;;;;;22.67;14.70;;;;;;;-0.51;73.49;94448.06;5131322;28;20035;-73
2020/12/04 00:34:17;;;;;;;24.88;15.15;;;;;;;-0.53;73.33;94447.41;5131937;28;20046;-72
2020/12/04 00:36:45;;;;;;;26.00;15.15;;;;;;;-0.55;73.33;94426.31;5132130;28;20062;-73
2020/12/04 00:39:12;;;;;;;26.45;15.65;;;;;;;-0.57;73.40;94433.34;5133119;28;20125;-72
2020/12/04 00:41:39;;;;;;;27.75;16.08;;;;;;;-0.58;73.34;94431.75;5129965;28;20062;-72
2020/12/04 00:44:05;;;;;;;24.98;16.15;;;;;;;-0.58;73.39;94421.53;5130212;28;20042;-72
2020/12/04 00:46:32;;;;;;;28.58;15.88;;;;;;;-0.55;73.38;94420.38;5130578;28;20038;-73
2020/12/04 00:48:58;;;;;;;26.25;15.50;;;;;;;-0.54;73.68;94412.53;5129117;28;20056;-73
2020/12/04 00:51:26;;;;;;;23.95;14.70;;;;;;;-0.52;73.50;94425.19;5130265;28;20338;-73
2020/12/04 00:53:53;;;;;;;23.25;14.43;;;;;;;-0.51;73.52;94447.25;5131675;28;20051;-73
2020/12/04 00:56:21;;;;;;;25.55;15.07;;;;;;;-0.50;73.83;94434.31;5130831;28;20047;-73
2020/12/04 00:58:48;;;;;;;24.67;15.25;;;;;;;-0.53;73.51;94416.69;5127908;28;20054;-73
2020/12/04 01:01:14;;;;;;;28.27;15.13;;;;;;;-0.58;73.35;94420.72;5115302;28;20055;-74
2020/12/04 01:03:41;;;;;;;26.77;16.35;;;;;;;-0.65;73.56;94400.91;5112720;28;20040;-73
2020/12/04 01:06:08;;;;;;;24.33;15.10;;;;;;;-0.72;73.62;94396.59;5113508;28;20054;-72
2020/12/04 01:08:35;;;;;;;28.08;16.02;;;;;;;-0.78;74.23;94385.28;5113092;28;20062;-74
2020/12/04 01:11:01;;;;;;;24.52;15.07;;;;;;;-0.78;74.32;94379.38;5112389;28;20048;-74
2020/12/04 01:13:28;;;;;;;26.33;16.73;;;;;;;-0.81;74.04;94370.25;5112668;28;20536;-74
2020/12/04 01:15:54;;;;;;;24.55;14.57;;;;;;;-0.88;74.20;94344.50;5112622;28;20050;-73
2020/12/04 01:18:21;;;;;;;23.55;15.63;;;;;;;-0.92;74.36;94352.69;5112227;28;20039;-74
2020/12/04 01:20:47;;;;;;;25.88;15.30;;;;;;;-0.91;74.76;94349.97;5113906;28;20043;-74
2020/12/04 01:23:14;;;;;;;24.30;14.38;;;;;;;-0.87;74.80;94371.72;5113592;28;20059;-73
2020/12/04 01:25:41;;;;;;;26.33;16.10;;;;;;;-0.84;74.83;94366.25;5112491;28;20052;-73
2020/12/04 01:28:08;;;;;;;27.08;16.35;;;;;;;-0.80;74.95;94373.63;5111967;28;20059;-74
2020/12/04 01:30:34;;;;;;;22.70;14.80;;;;;;;-0.81;74.28;94375.38;5112005;28;20058;-74
2020/12/04 01:33:01;;;;;;;23.73;15.70;;;;;;;-0.80;74.48;94373.63;5112098;28;20058;-74
2020/12/04 01:35:27;;;;;;;25.10;15.10;;;;;;;-0.79;74.41;94370.09;5112038;28;20413;-74
2020/12/04 01:37:54;;;;;;;25.90;16.05;;;;;;;-0.78;74.61;94374.25;5112368;28;20050;-73
2020/12/04 01:40:21;;;;;;;24.92;15.68;;;;;;;-0.77;74.45;94370.72;5112032;28;20052;-74
2020/12/04 01:42:48;;;;;;;24.00;14.98;;;;;;;-0.78;73.65;94376.81;5112167;28;20044;-74
2020/12/04 01:45:15;;;;;;;27.20;16.85;;;;;;;-0.81;74.14;94359.22;5114166;28;20056;-73
2020/12/04 01:47:42;;;;;;;27.27;16.02;;;;;;;-0.84;74.04;94345.78;5115814;28;20059;-73
2020/12/04 01:50:08;;;;;;;32.35;18.20;;;;;;;-0.84;73.77;94339.88;5115533;28;20048;-74
2020/12/04 01:52:35;;;;;;;28.15;16.17;;;;;;;-0.86;73.78;94322.13;5128910;28;20044;-72
2020/12/04 01:55:02;;;;;;;28.05;16.00;;;;;;;-0.89;73.63;94327.56;5134841;28;20054;-73
2020/12/04 01:57:33;;;;;;;26.15;15.15;;;;;;;-0.91;73.91;94323.59;5131136;28;20047;-74
2020/12/04 02:00:01;;;;;;;24.45;14.88;;;;;;;-0.90;73.65;94300.38;5120451;28;20055;-74
2020/12/04 02:02:27;;;;;;;26.23;15.48;;;;;;;-0.88;73.79;94288.22;5120599;28;20489;-73
2020/12/04 02:04:54;;;;;;;24.77;15.02;;;;;;;-0.84;73.90;94284.34;5122227;28;20052;-73
2020/12/04 02:07:29;;;;;;;24.55;14.73;;;;;;;-0.82;73.48;94270.59;5125677;28;20044;-74
2020/12/04 02:10:02;;;;;;;25.23;15.13;;;;;;;-0.83;73.92;94267.25;5123794;28;20048;-72
2020/12/04 02:12:29;;;;;;;23.27;14.85;;;;;;;-0.84;73.63;94258.75;5124306;28;20044;-73
2020/12/04 02:14:56;;;;;;;24.80;15.43;;;;;;;-0.87;73.68;94254.00;5124886;28;20048;-73
2020/12/04 02:17:32;;;;;;;23.27;14.68;;;;;;;-0.90;73.62;94284.22;5120447;28;20051;-73
2020/12/04 02:19:59;;;;;;;25.25;15.38;;;;;;;-0.92;73.53;94274.19;5124465;28;20051;-72
2020/12/04 02:22:33;;;;;;;24.67;15.38;;;;;;;-0.94;74.29;94277.84;5130061;28;20046;-72
2020/12/04 02:25:00;;;;;;;29.30;16.90;;;;;;;-0.94;74.28;94267.59;5129014;28;20058;-71
2020/12/04 02:27:27;;;;;;;25.92;16.73;;;;;;;-0.92;74.23;94261.38;5130027;28;20048;-72
2020/12/04 02:29:53;;;;;;;27.15;15.85;;;;;;;-0.90;74.03;94261.19;5128564;28;20056;-75
2020/12/04 02:32:20;;;;;;;21.60;14.85;;;;;;;-0.89;73.94;94261.03;5125198;28;20052;-73
2020/12/04 02:34:46;;;;;;;26.98;15.95;;;;;;;-0.86;74.02;94252.22;5130079;28;20135;-72
2020/12/04 02:37:13;;;;;;;25.65;15.13;;;;;;;-0.84;73.77;94250.28;5129763;28;20039;-72
2020/12/04 02:39:41;;;;;;;27.17;17.10;;;;;;;-0.83;73.76;94254.47;5130308;28;20058;-72
2020/12/04 02:42:07;;;;;;;25.33;15.85;;;;;;;-0.84;74.06;94248.53;5131253;28;20074;-72
2020/12/04 02:44:34;;;;;;;24.48;14.90;;;;;;;-0.84;73.96;94245.97;5129729;28;20052;-73
2020/12/04 02:47:00;;;;;;;26.30;15.75;;;;;;;-0.82;74.00;94237.34;5118189;28;20325;-73
2020/12/04 02:49:27;;;;;;;26.55;16.80;;;;;;;-0.84;73.92;94233.16;5114571;28;20054;-73
2020/12/04 02:51:54;;;;;;;25.58;15.15;;;;;;;-0.84;73.98;94238.28;5114473;28;20052;-73
2020/12/04 02:54:21;;;;;;;26.75;15.55;;;;;;;-0.84;74.09;94232.38;5114184;28;20051;-73
2020/12/04 02:56:48;;;;;;;26.33;16.52;;;;;;;-0.84;74.29;94233.16;5113368;28;20051;-74
2020/12/04 02:59:15;;;;;;;27.27;16.15;;;;;;;-0.82;73.89;94229.66;5113816;28;20142;-73
2020/12/04 03:01:41;;;;;;;25.13;16.33;;;;;;;-0.82;74.26;94222.75;5114428;28;20047;-74
2020/12/04 03:04:08;;;;;;;24.00;15.90;;;;;;;-0.82;74.17;94224.53;5114936;28;20051;-73
2020/12/04 03:06:35;;;;;;;26.85;15.38;;;;;;;-0.81;73.87;94228.66;5115483;28;20044;-73
2020/12/04 03:09:02;;;;;;;28.35;16.05;;;;;;;-0.81;73.74;94228.66;5114938;28;20048;-72
2020/12/04 03:11:29;;;;;;;28.08;16.13;;;;;;;-0.85;73.81;94221.34;5114299;28;20043;-72
2020/12/04 03:13:56;;;;;;;26.17;15.18;;;;;;;-0.84;74.46;94217.00;5114158;28;20044;-73
2020/12/04 03:16:23;;;;;;;26.60;15.85;;;;;;;-0.84;74.31;94211.91;5114306;28;20138;-73
2020/12/04 03:18:50;;;;;;;29.38;16.52;;;;;;;-0.82;74.68;94215.09;5114297;28;20137;-73
2020/12/04 03:21:16;;;;;;;29.05;17.92;;;;;;;-0.79;74.44;94208.81;5113724;28;20052;-74
2020/12/04 03:23:43;;;;;;;25.27;15.95;;;;;;;-0.80;74.13;94213.16;5113945;28;20094;-74
2020/12/04 03:26:09;;;;;;;24.08;15.63;;;;;;;-0.79;74.19;94214.72;5113734;28;20505;-74
2020/12/04 03:28:36;;;;;;;27.95;16.85;;;;;;;-0.78;74.01;94205.31;5113744;28;20070;-73
2020/12/04 03:31:03;;;;;;;26.40;16.45;;;;;;;-0.79;74.36;94213.94;5113244;28;20059;-73
2020/12/04 03:33:29;;;;;;;29.92;15.68;;;;;;;-0.80;74.33;94210.59;5113569;28;20043;-73
2020/12/04 03:35:56;;;;;;;29.17;15.98;;;;;;;-0.80;74.19;94204.69;5113890;28;20074;-73
2020/12/04 03:38:22;;;;;;;27.70;15.77;;;;;;;-0.85;74.38;94200.06;5113996;28;20055;-73
2020/12/04 03:40:49;;;;;;;27.70;16.17;;;;;;;-0.84;74.34;94204.22;5113463;28;20434;-73
2020/12/04 03:43:15;;;;;;;26.48;15.70;;;;;;;-0.82;74.25;94194.59;5113599;28;20134;-73
2020/12/04 03:45:42;;;;;;;27.02;16.58;;;;;;;-0.81;74.06;94191.06;5113402;28;20313;-73
2020/12/04 03:48:10;;;;;;;27.92;16.52;;;;;;;-0.79;74.21;94206.25;5113486;28;20050;-72
2020/12/04 03:50:37;;;;;;;29.23;16.95;;;;;;;-0.78;74.62;94208.66;5113228;28;20497;-73
2020/12/04 03:53:03;;;;;;;27.50;16.33;;;;;;;-0.80;74.20;94199.56;5113899;28;20056;-73
2020/12/04 03:55:29;;;;;;;26.80;16.15;;;;;;;-0.81;74.31;94201.31;5113388;28;20051;-73
2020/12/04 03:57:56;;;;;;;29.70;16.48;;;;;;;-0.82;74.50;94193.81;5113117;28;20417;-73
2020/12/04 04:00:23;;;;;;;26.92;16.05;;;;;;;-0.82;74.54;94194.59;5112674;28;20077;-73
2020/12/04 04:02:49;;;;;;;27.67;17.48;;;;;;;-0.79;74.60;94188.34;5113110;28;20054;-73
2020/12/04 04:05:17;;;;;;;31.02;16.60;;;;;;;-0.77;74.75;94187.19;5113110;28;20051;-73
2020/12/04 04:07:44;;;;;;;27.67;16.75;;;;;;;-0.72;75.03;94181.56;5112835;28;20051;-73
2020/12/04 04:10:11;;;;;;;27.85;16.35;;;;;;;-0.69;74.63;94188.91;5112658;28;20047;-73
2020/12/04 04:12:38;;;;;;;29.30;16.77;;;;;;;-0.69;74.69;94189.72;5113075;28;20470;-73
2020/12/04 04:15:04;;;;;;;26.33;15.63;;;;;;;-0.68;74.70;94195.63;5112726;28;20059;-74
2020/12/04 04:17:31;;;;;;;29.90;18.00;;;;;;;-0.68;74.86;94180.25;5112740;28;20059;-73
2020/12/04 04:19:57;;;;;;;26.90;15.45;;;;;;;-0.72;74.73;94179.00;5112863;28;20052;-73
2020/12/04 04:22:25;;;;;;;28.65;16.05;;;;;;;-0.75;74.62;94187.81;5112907;28;20229;-73
2020/12/04 04:24:51;;;;;;;30.20;16.42;;;;;;;-0.79;74.47;94173.78;5112763;28;20062;-73
2020/12/04 04:27:18;;;;;;;27.52;16.55;;;;;;;-0.85;74.49;94184.72;5112621;28;20054;-72
2020/12/04 04:29:44;;;;;;;28.88;17.30;;;;;;;-0.89;74.56;94189.38;5112249;28;20056;-73
2020/12/04 04:32:11;;;;;;;28.30;14.85;;;;;;;-0.89;74.57;94174.03;5112542;28;20051;-74
2020/12/04 04:34:37;;;;;;;26.98;16.08;;;;;;;-0.91;74.67;94180.28;5112660;28;20062;-73
2020/12/04 04:37:04;;;;;;;26.17;16.17;;;;;;;-0.95;74.58;94184.94;5112631;28;20067;-73
2020/12/04 04:39:31;;;;;;;31.00;17.80;;;;;;;-1.01;74.75;94183.03;5112090;28;20050;-73
2020/12/04 04:41:58;;;;;;;30.15;16.52;;;;;;;-1.03;74.85;94182.41;5112498;28;20051;-73
2020/12/04 04:44:25;;;;;;;28.23;16.30;;;;;;;-1.04;75.02;94199.53;5112361;28;20052;-73
2020/12/04 04:47:03;;;;;;;28.33;16.45;;;;;;;-1.02;75.31;94211.38;5112496;28;20050;-72
2020/12/04 04:49:35;;;;;;;28.02;17.55;;;;;;;-1.04;75.33;94202.09;5112123;28;20055;-73
2020/12/04 04:52:02;;;;;;;27.85;16.77;;;;;;;-1.01;75.01;94221.44;5112655;28;20043;-73
2020/12/04 04:54:30;;;;;;;29.23;17.65;;;;;;;-0.97;75.09;94232.13;5112417;28;20044;-73
2020/12/04 04:56:58;;;;;;;28.75;17.42;;;;;;;-0.95;75.35;94246.34;5112115;28;20048;-73
2020/12/04 04:59:24;;;;;;;25.67;16.67;;;;;;;-0.93;74.88;94238.50;5112141;28;20074;-73
2020/12/04 05:01:51;;;;;;;30.08;17.35;;;;;;;-0.95;75.02;94228.44;5112348;28;20047;-73
2020/12/04 05:04:18;;;;;;;26.55;16.48;;;;;;;-0.96;75.18;94249.06;5112264;28;20048;-74
2020/12/04 05:06:45;;;;;;;30.08;17.83;;;;;;;-0.94;75.50;94249.69;5112606;28;20425;-73
2020/12/04 05:09:16;;;;;;;26.15;16.42;;;;;;;-0.95;75.02;94246.34;5111824;28;20051;-73
2020/12/04 05:11:54;;;;;;;27.08;17.27;;;;;;;-0.96;75.05;94241.38;5112616;28;20448;-73
2020/12/04 05:14:24;;;;;;;26.27;16.10;;;;;;;-0.98;75.24;94240.78;5112329;28;20050;-73
2020/12/04 05:16:53;;;;;;;29.80;17.48;;;;;;;-0.96;75.03;94242.22;5112572;28;20075;-71
2020/12/04 05:19:29;;;;;;;30.02;16.65;;;;;;;-0.98;74.99;94236.47;5112649;28;20448;-73
2020/12/04 05:22:07;;;;;;;26.55;16.00;;;;;;;-0.95;74.58;94231.00;5116264;28;20066;-74
2020/12/04 05:24:33;;;;;;;29.33;17.48;;;;;;;-0.92;75.08;94234.97;5116203;28;20055;-73
2020/12/04 05:27:00;;;;;;;30.33;17.40;;;;;;;-0.90;75.28;94233.03;5116141;28;20048;-73
2020/12/04 05:29:37;;;;;;;29.63;16.98;;;;;;;-0.91;75.38;94222.03;5115623;28;20047;-74
2020/12/04 05:32:13;;;;;;;29.42;17.92;;;;;;;-0.92;75.08;94212.75;5116241;28;20083;-74
2020/12/04 05:34:40;;;;;;;30.13;16.27;;;;;;;-0.91;74.85;94211.00;5116068;28;20485;-73
2020/12/04 05:37:08;;;;;;;51.17;18.58;;;;;;;-0.94;74.87;94209.56;5116171;28;20048;-73
2020/12/04 05:39:41;;;;;;;34.45;18.15;;;;;;;-0.95;75.20;94214.84;5120861;28;20058;-72
2020/12/04 05:42:08;;;;;;;31.17;16.95;;;;;;;-0.98;75.00;94210.88;5120006;28;20063;-74
2020/12/04 05:44:34;;;;;;;33.15;17.17;;;;;;;-0.99;75.06;94224.63;5119808;28;20048;-72
2020/12/04 05:47:02;;;;;;;31.17;17.60;;;;;;;-1.00;75.36;94220.47;5119248;28;20039;-73
2020/12/04 05:49:41;;;;;;;28.45;17.02;;;;;;;-1.01;75.77;94226.53;5114231;28;20536;-73
2020/12/04 05:52:07;;;;;;;36.15;18.27;;;;;;;-0.99;75.45;94227.19;5115227;28;20055;-73
2020/12/04 05:54:34;;;;;;;28.23;17.70;;;;;;;-0.97;75.36;94227.81;5115740;28;20096;-73
2020/12/04 05:57:02;;;;;;;32.85;17.80;;;;;;;-0.96;75.29;94231.97;5115811;28;20048;-73
2020/12/04 05:59:28;;;;;;;28.05;17.27;;;;;;;-0.96;75.17;94224.28;5122288;28;20051;-72
2020/12/04 06:01:56;;;;;;;27.83;18.27;;;;;;;-0.95;75.36;94231.00;5118963;28;20051;-73
2020/12/04 06:04:24;;;;;;;29.30;17.20;;;;;;;-0.96;75.17;94224.28;5117603;28;20051;-73
2020/12/04 06:06:52;;;;;;;26.10;15.93;;;;;;;-0.94;75.15;94221.53;5115669;28;20043;-73
2020/12/04 06:09:21;;;;;;;30.17;16.77;;;;;;;-0.93;75.24;94223.94;5115032;28;20058;-73
2020/12/04 06:11:48;;;;;;;28.95;17.50;;;;;;;-0.91;75.37;94219.47;5115479;28;20044;-73
2020/12/04 06:14:15;;;;;;;24.70;16.05;;;;;;;-0.91;75.46;94211.78;5115187;28;20557;-73
2020/12/04 06:16:42;;;;;;;31.27;18.13;;;;;;;-0.94;75.15;94212.13;5115718;28;20054;-73
2020/12/04 06:19:27;;;;;;;29.10;17.42;;;;;;;-0.96;75.40;94203.81;5114788;28;20051;-74
2020/12/04 06:22:03;;;;;;;31.10;17.55;;;;;;;-0.98;75.36;94199.84;5115007;28;20044;-75
2020/12/04 06:24:30;;;;;;;27.13;17.08;;;;;;;-1.00;75.29;94210.25;5115425;28;20053;-75
2020/12/04 06:26:56;;;;;;;29.70;18.98;;;;;;;-0.99;75.42;94201.59;5115246;28;20052;-74
2020/12/04 06:29:23;;;;;;;28.83;18.10;;;;;;;-0.99;75.66;94190.56;5114666;28;20623;-75
2020/12/04 06:31:49;;;;;;;34.72;18.35;;;;;;;-0.99;75.66;94199.03;5113800;28;20047;-76
2020/12/04 06:34:17;;;;;;;28.83;18.17;;;;;;;-0.97;75.86;94194.53;5116437;28;20074;-75
2020/12/04 06:36:45;;;;;;;32.92;19.70;;;;;;;-0.94;76.00;94189.09;5116775;28;20054;-76
2020/12/04 06:39:28;;;;;;;30.05;16.98;;;;;;;-0.88;76.02;94180.72;5114652;28;20390;-75
2020/12/04 06:41:55;;;;;;;;;;;;;;;-0.82;75.80;94152.88;5115486;28;20059;-75
2020/12/04 06:44:23;;;;;;;27.17;16.83;;;;;;;-0.80;75.25;94153.50;5115096;28;20380;-76
2020/12/04 06:46:53;;;;;;;25.95;16.52;;;;;;;-0.80;75.89;94151.72;5115255;28;20059;-76
2020/12/04 06:49:37;;;;;;;29.50;17.50;;;;;;;-0.77;76.35;94146.25;5116150;28;20039;-81
2020/12/04 06:52:09;;;;;;;24.60;14.60;;;;;;;-0.71;76.11;94149.91;5112492;28;20497;-76
2020/12/04 06:54:38;;;;;;;;;;;;;;;-0.66;75.97;94163.78;5113573;28;20052;-76
2020/12/04 06:57:06;;;;;;;28.40;15.13;;;;;;;-0.65;75.60;94156.88;5115347;28;19924;-77
2020/12/04 06:59:34;;;;;;;26.90;16.20;;;;;;;-0.64;75.73;94156.69;5114567;28;20052;-76
2020/12/04 07:02:05;;;;;;;47.45;18.83;;;;;;;-0.60;75.76;94146.91;5114696;28;20058;-76
2020/12/04 07:04:34;;;;;;;28.33;14.95;;;;;;;-0.54;75.65;94150.56;5114573;28;20512;-75
2020/12/04 07:07:10;;;;;;;26.00;15.43;;;;;;;-0.49;75.67;94149.06;5114978;28;20075;-75
2020/12/04 07:09:39;;;;;;;24.40;14.85;;;;;;;-0.44;75.80;94149.34;5114193;28;20044;-75
2020/12/04 07:12:05;;;;;;;27.65;15.98;;;;;;;-0.39;75.47;94165.94;5124052;28;20066;-75
2020/12/04 07:14:32;;;;;;;28.63;16.45;;;;;;;-0.36;75.25;94161.28;5132718;28;20422;-71
2020/12/04 07:16:59;;;;;;;26.90;16.55;;;;;;;-0.35;74.87;94162.06;5134114;28;20058;-73
2020/12/04 07:19:27;;;;;;;28.38;15.48;;;;;;;-0.37;75.24;94172.50;5131711;28;20047;-73
2020/12/04 07:21:54;;;;;;;36.47;17.75;;;;;;;-0.37;75.23;94171.69;5116938;28;20501;-72
2020/12/04 07:24:21;;;;;;;30.13;15.88;;;;;;;-0.37;75.21;94177.63;5116799;28;20044;-74
2020/12/04 07:26:56;;;;;;;34.33;17.77;;;;;;;-0.39;74.92;94163.38;5115668;28;20048;-74
2020/12/04 07:29:22;;;;;;;31.90;16.42;;;;;;;-0.43;75.26;94163.72;5113877;28;20051;-74
2020/12/04 07:31:52;;;;;;;31.80;16.60;;;;;;;-0.47;75.18;94157.34;5114275;28;20055;-75
2020/12/04 07:34:22;;;;;;;32.83;16.38;;;;;;;-0.48;75.38;94160.91;5113040;28;20063;-74
2020/12/04 07:36:54;;;;;;;28.05;17.15;;;;;;;-0.49;75.24;94164.41;5113585;28;20525;-74
2020/12/04 07:39:27;;;;;;;25.80;15.93;;;;;;;-0.49;75.00;94164.41;5112897;28;20055;-73
2020/12/04 07:41:56;;;;;;;26.55;16.08;;;;;;;-0.51;75.09;94170.69;5113681;28;20071;-75
2020/12/04 07:44:30;;;;;;;26.00;15.45;;;;;;;-0.53;75.07;94167.50;5114393;28;20048;-75
2020/12/04 07:47:07;;;;;;;29.70;17.33;;;;;;;-0.55;75.01;94170.22;5114571;28;20429;-74
2020/12/04 07:49:36;;;;;;;28.92;16.95;;;;;;;-0.53;75.08;94168.28;5113283;28;20424;-75
2020/12/04 07:52:11;;;;;;;35.30;18.10;;;;;;;-0.52;75.60;94175.03;5113202;28;20054;-75
2020/12/04 07:54:39;;;;;;;36.83;17.73;;;;;;;-0.50;75.03;94183.31;5113796;28;20053;-75
2020/12/04 07:57:06;;;;;;;27.52;16.30;;;;;;;-0.48;74.99;94175.44;5113703;28;20043;-74
2020/12/04 07:59:34;;;;;;;25.23;15.75;;;;;;;-0.50;74.75;94175.66;5113164;28;20128;-75
2020/12/04 08:02:03;;;;;;;25.10;16.13;;;;;;;-0.50;74.65;94162.84;5113825;28;20054;-74
2020/12/04 08:04:31;;;;;;;26.63;16.00;;;;;;;-0.49;74.76;94174.66;5113302;28;20051;-75
2020/12/04 08:07:06;;;;;;;27.75;15.82;;;;;;;-0.47;75.61;94159.91;5113906;28;20538;-75
2020/12/04 08:09:38;;;;;;;26.77;16.58;;;;;;;-0.44;74.79;94148.53;5117580;28;20047;-75
2020/12/04 08:12:10;;;;;;;26.33;15.75;;;;;;;-0.43;74.57;94143.25;5113346;28;20055;-75
2020/12/04 08:14:41;;;;;;;27.90;16.50;;;;;;;-0.39;75.11;94148.81;5111985;28;20516;-75
2020/12/04 08:17:07;;;;;;;25.80;15.95;;;;;;;-0.35;74.79;94152.63;5112021;28;20533;-75
2020/12/04 08:19:36;;;;;;;35.55;17.27;;;;;;;-0.32;74.87;94149.72;5112939;28;20047;-75
2020/12/04 08:22:04;;;;;;;25.38;16.20;;;;;;;-0.33;74.59;94157.56;5113447;28;20047;-74
2020/12/04 08:24:33;;;;;;;25.52;16.48;;;;;;;-0.32;74.65;94164.28;5112855;28;20058;-74
2020/12/04 08:27:12;;;;;;;33.17;17.35;;;;;;;-0.33;74.36;94168.63;5112953;28;20051;-73
2020/12/04 08:29:40;;;;;;;28.27;17.25;;;;;;;-0.31;74.65;94163.31;5111180;28;20047;-73
2020/12/04 08:32:10;;;;;;;26.15;16.63;;;;;;;-0.33;74.56;94137.88;5112580;28;20520;-74
2020/12/04 08:34:37;;;;;;;27.92;16.08;;;;;;;-0.34;74.66;94158.53;5110959;28;20051;-74
2020/12/04 08:37:05;;;;;;;29.25;17.33;;;;;;;-0.35;74.34;94155.19;5112587;28;20047;-73
2020/12/04 08:39:38;;;;;;;29.45;16.13;;;;;;;-0.37;74.03;94149.44;5112247;28;20044;-74
2020/12/04 08:42:21;;;;;;;27.92;16.15;;;;;;;-0.37;74.16;94146.06;5112077;28;20413;-73
2020/12/04 08:44:57;;;;;;;;;;;;;;;-0.36;74.27;94143.34;5113235;28;20432;-75
2020/12/04 08:47:33;;;;;;;26.77;15.15;;;;;;;-0.37;74.13;94152.00;5112530;28;20305;-74
2020/12/04 08:52:41;;;;;;;28.67;17.40;;;;;;;-0.38;74.19;94158.09;5216717;22;20064;-79
2020/12/04 08:55:09;;;;;;;29.80;18.38;;;;;;;-0.35;74.41;94156.94;5055638;28;20053;-78
2020/12/04 08:57:37;;;;;;;26.58;16.15;;;;;;;-0.32;74.09;94154.03;5057248;28;20044;-79
2020/12/04 09:00:10;;;;;;;32.45;19.48;;;;;;;-0.30;73.94;94152.09;5059175;28;20141;-77
2020/12/04 09:02:38;;;;;;;28.30;16.30;;;;;;;-0.25;73.86;94139.56;5076637;28;20147;-78
2020/12/04 09:05:10;;;;;;;27.75;17.00;;;;;;;-0.22;73.80;94139.19;5076700;28;20545;-78
2020/12/04 09:07:38;;;;;;;34.60;17.67;;;;;;;-0.19;73.78;94126.03;5077106;28;20057;-78
2020/12/04 09:10:06;;;;;;;33.80;18.63;;;;;;;-0.16;73.93;94127.44;5093424;28;20051;-79
2020/12/04 09:12:33;;;;;;;33.60;18.30;;;;;;;-0.14;73.62;94123.75;5098065;28;20051;-79
2020/12/04 09:15:01;;;;;;;44.45;20.10;;;;;;;-0.10;73.78;94127.53;5096814;28;20068;-78
2020/12/04 09:17:28;;;;;;;32.28;18.67;;;;;;;-0.05;73.90;94122.66;5096929;28;20056;-79
2020/12/04 09:19:56;;;;;;;28.08;16.73;;;;;;;-0.01;73.65;94131.59;5085975;28;20110;-78
2020/12/04 09:22:23;;;;;;;29.00;16.67;;;;;;;0.03;73.67;94138.94;5077010;28;20091;-78
2020/12/04 09:24:50;;;;;;;30.45;19.52;;;;;;;0.01;73.61;94143.47;5077213;28;20060;-77
2020/12/04 09:27:17;;;;;;;31.00;17.65;;;;;;;-0.05;73.81;94130.34;5095701;28;20068;-79
2020/12/04 09:29:44;;;;;;;32.55;18.08;;;;;;;-0.05;74.04;94127.78;5097988;28;20044;-78
2020/12/04 09:32:14;;;;;;;31.55;17.67;;;;;;;-0.02;74.41;94124.91;5092144;28;20056;-79
2020/12/04 09:34:41;;;;;;;31.80;18.27;;;;;;;0.02;73.81;94156.06;5094346;28;20044;-78
2020/12/04 09:37:13;;;;;;;32.90;19.10;;;;;;;0.00;73.67;94147.78;5097323;28;20131;-77
2020/12/04 09:39:39;;;;;;;34.60;18.80;;;;;;;0.03;73.96;94144.09;5100841;28;20046;-78
2020/12/04 09:42:07;;;;;;;29.35;18.58;;;;;;;0.04;73.91;94138.75;5119469;28;20104;-78
2020/12/04 09:44:34;;;;;;;32.13;18.73;;;;;;;0.06;74.00;94124.00;5112593;28;20131;-78
2020/12/04 09:47:00;;;;;;;31.55;17.95;;;;;;;0.10;73.93;94121.88;5096466;28;20044;-78
2020/12/04 09:49:28;;;;;;;32.28;18.45;;;;;;;0.14;73.83;94100.84;5095985;28;20048;-78
2020/12/04 09:51:57;;;;;;;28.55;17.52;;;;;;;0.17;73.76;94097.91;5095972;28;20048;-77
2020/12/04 09:54:23;;;;;;;28.02;17.33;;;;;;;0.18;73.66;94099.50;5095695;28;20402;-78
2020/12/04 09:56:53;;;;;;;28.15;17.30;;;;;;;0.22;73.61;94099.97;5095897;28;20067;-79
2020/12/04 09:59:19;;;;;;;28.00;17.55;;;;;;;0.28;73.55;94103.56;5095352;28;20048;-77
2020/12/04 10:01:48;;;;;;;34.00;18.63;;;;;;;0.32;73.51;94099.66;5095345;28;20055;-78
2020/12/04 10:04:15;;;;;;;30.85;17.23;;;;;;;0.37;73.45;94100.72;5095545;28;20039;-77
2020/12/04 10:06:42;;;;;;;30.02;17.40;;;;;;;0.43;72.96;94093.28;5095600;28;20048;-78
2020/12/04 10:09:09;;;;;;;29.67;17.77;;;;;;;0.46;73.21;94090.34;5094883;28;20180;-77
2020/12/04 10:11:36;;;;;;;30.30;17.55;;;;;;;0.53;73.47;94091.22;5097639;28;20425;-77
2020/12/04 10:14:02;;;;;;;29.25;16.60;;;;;;;0.60;73.35;94092.06;5090516;28;20044;-78
2020/12/04 10:16:29;;;;;;;31.33;17.80;;;;;;;0.64;72.80;94090.75;5075426;28;20057;-78
2020/12/04 10:18:57;;;;;;;28.67;17.45;;;;;;;0.66;72.28;94099.06;5075948;28;20418;-78
2020/12/04 10:21:24;;;;;;;26.95;16.80;;;;;;;0.68;72.79;94102.22;5074992;28;20131;-77
2020/12/04 10:23:53;;;;;;;28.02;17.15;;;;;;;0.73;72.92;94099.13;5075353;28;20535;-77
2020/12/04 10:26:20;;;;;;;27.55;16.88;;;;;;;0.77;72.63;94083.16;5083337;28;20048;-77
2020/12/04 10:28:47;;;;;;;28.15;15.45;;;;;;;0.81;72.32;94079.25;5079898;28;20518;-78
2020/12/04 10:31:14;;;;;;;29.75;17.45;;;;;;;0.86;72.08;94076.16;5076712;28;20044;-77
2020/12/04 10:33:40;;;;;;;28.27;16.20;;;;;;;0.90;71.96;94081.72;5088917;28;20048;-77
2020/12/04 10:36:07;;;;;;;26.38;15.18;;;;;;;0.93;71.79;94074.44;5099774;28;20577;-77
2020/12/04 10:38:34;;;;;;;29.05;16.67;;;;;;;0.97;72.13;94064.59;5098390;28;20044;-78
2020/12/04 10:41:02;;;;;;;29.48;16.98;;;;;;;1.02;71.96;94059.69;5096446;28;20137;-77
2020/12/04 10:43:28;;;;;;;28.40;17.52;;;;;;;1.05;71.57;94054.19;5097056;28;20048;-77
2020/12/04 10:45:55;;;;;;;24.95;15.30;;;;;;;1.08;70.83;94061.53;5096733;28;20052;-77
2020/12/04 10:48:21;;;;;;;26.60;14.98;;;;;;;1.12;70.98;94064.53;5096527;28;20421;-78
2020/12/04 10:50:48;;;;;;;25.90;15.02;;;;;;;1.16;70.68;94053.69;5096348;28;20399;-78
2020/12/04 10:53:15;;;;;;;25.70;15.63;;;;;;;1.17;71.29;94060.41;5096557;28;20063;-78
2020/12/04 10:55:42;;;;;;;25.63;15.15;;;;;;;1.18;70.35;94050.91;5097772;28;20048;-78
2020/12/04 10:58:11;;;;;;;23.80;14.63;;;;;;;1.19;70.71;94055.88;5096192;28;20056;-80
2020/12/04 11:00:39;;;;;;;28.90;16.42;;;;;;;1.20;70.45;94051.53;5096109;28;20058;-78
2020/12/04 11:03:12;;;;;;;25.77;15.40;;;;;;;1.20;70.84;94060.03;5095419;28;20139;-78
2020/12/04 11:05:40;;;;;;;26.25;15.98;;;;;;;1.21;70.62;94048.78;5094554;28;20127;-78
2020/12/04 11:08:09;;;;;;;26.92;16.17;;;;;;;1.22;70.64;94060.66;5095703;28;20052;-78
2020/12/04 11:10:36;;;;;;;27.77;15.90;;;;;;;1.23;70.60;94058.88;5094560;28;20062;-78
2020/12/04 11:13:04;;;;;;;26.73;16.15;;;;;;;1.23;70.04;94057.09;5096536;28;20434;-77
2020/12/04 11:15:35;;;;;;;24.20;14.45;;;;;;;1.20;70.02;94061.78;5099038;28;20040;-77
2020/12/04 11:18:03;;;;;;;27.20;15.88;;;;;;;1.14;70.23;94060.78;5098743;28;20047;-78
2020/12/04 11:20:31;;;;;;;28.92;16.27;;;;;;;1.14;70.03;94073.63;5095510;28;20044;-78
2020/12/04 11:22:58;;;;;;;25.52;15.18;;;;;;;1.14;70.28;94052.28;5095428;28;20048;-77
2020/12/04 11:25:24;;;;;;;26.42;15.32;;;;;;;1.14;70.10;94057.44;5095314;28;20421;-78
2020/12/04 11:27:52;;;;;;;27.23;16.88;;;;;;;1.14;70.47;94052.28;5095165;28;20071;-77